Time,TemperatureF,DewpointF,PressureIn,WindDirection,WindDirectionDegrees,WindSpeedMPH,WindSpeedGustMPH,Humidity,HourlyPrecipIn,Conditions,Clouds,dailyrainin,SoftwareType,DateUTC
2013-09-18 00:02:00,51.9,45.9,29.71,WSW,251,0.0,4.0,80,0.00,,,0.00,Wunderground v.1.15,2013-09-18 06:02:00,
2013-09-18 00:08:00,52.5,45.8,29.71,NW,314,3.0,4.0,78,0.00,,,0.00,Wunderground v.1.15,2013-09-18 06:08:00,
2013-09-18 00:14:00,52.0,45.4,29.71,NNW,342,0.0,2.0,78,0.00,,,0.00,Wunderground v.1.15,2013-09-18 06:14:00,
2013-09-18 00:20:00,52.1,45.4,29.72,NNW,342,2.0,2.0,78,0.00,,,0.00,Wunderground v.1.15,2013-09-18 06:20:00,
2013-09-18 00:26:00,52.1,45.4,29.72,NNW,343,0.0,2.0,78,0.00,,,0.00,Wunderground v.1.15,2013-09-18 06:26:00,
2013-09-18 00:31:00,51.8,45.2,29.72,NNW,343,0.0,0.0,78,0.00,,,0.00,Wunderground v.1.15,2013-09-18 06:31:00,
2013-09-18 00:37:00,51.6,45.3,29.72,NNW,343,2.0,2.0,79,0.00,,,0.00,Wunderground v.1.15,2013-09-18 06:37:00,
2013-09-18 00:42:00,51.2,45.2,29.71,South,187,0.0,3.0,80,0.00,,,0.00,Wunderground v.1.15,2013-09-18 06:42:00,
2013-09-18 00:47:00,51.2,45.2,29.72,South,188,0.0,3.0,80,0.00,,,0.00,Wunderground v.1.15,2013-09-18 06:47:00,
2013-09-18 00:53:00,51.5,45.9,29.72,West,275,4.0,4.0,81,0.00,,,0.00,Wunderground v.1.15,2013-09-18 06:53:00,
2013-09-18 00:58:00,51.8,46.2,29.72,NW,307,5.0,5.0,81,0.00,,,0.00,Wunderground v.1.15,2013-09-18 06:58:00,
2013-09-18 01:04:00,52.3,46.3,29.72,NW,309,6.0,6.0,80,0.00,,,0.00,Wunderground v.1.15,2013-09-18 07:04:00,
2013-09-18 01:09:00,52.6,46.9,29.72,NW,309,0.0,3.0,81,0.00,,,0.00,Wunderground v.1.15,2013-09-18 07:09:00,
2013-09-18 01:15:00,52.7,47.0,29.71,NNW,342,5.0,5.0,81,0.00,,,0.00,Wunderground v.1.15,2013-09-18 07:15:00,
2013-09-18 01:21:00,52.9,47.2,29.70,NNW,344,0.0,3.0,81,0.00,,,0.00,Wunderground v.1.15,2013-09-18 07:21:00,
2013-09-18 01:26:00,53.1,47.4,29.70,NNW,344,0.0,3.0,81,0.00,,,0.00,Wunderground v.1.15,2013-09-18 07:26:00,
2013-09-18 01:31:00,52.9,47.2,29.71,NNW,344,0.0,0.0,81,0.00,,,0.00,Wunderground v.1.15,2013-09-18 07:31:00,
2013-09-18 01:37:00,53.1,47.1,29.71,NNW,344,0.0,0.0,80,0.00,,,0.00,Wunderground v.1.15,2013-09-18 07:37:00,
2013-09-18 01:43:00,53.2,47.2,29.72,NE,39,4.0,5.0,80,0.00,,,0.00,Wunderground v.1.15,2013-09-18 07:43:00,
2013-09-18 01:48:00,52.8,46.8,29.73,NE,39,0.0,5.0,80,0.00,,,0.00,Wunderground v.1.15,2013-09-18 07:48:00,
2013-09-18 01:53:00,52.4,46.7,29.72,NE,38,0.0,3.0,81,0.00,,,0.00,Wunderground v.1.15,2013-09-18 07:53:00,
2013-09-18 01:59:00,52.2,46.5,29.72,NE,39,0.0,3.0,81,0.00,,,0.00,Wunderground v.1.15,2013-09-18 07:59:00,
2013-09-18 02:04:00,52.1,46.4,29.72,NE,39,1.0,1.0,81,0.00,,,0.00,Wunderground v.1.15,2013-09-18 08:04:00,
2013-09-18 02:09:00,52.0,46.3,29.72,NE,38,1.0,3.0,81,0.00,,,0.00,Wunderground v.1.15,2013-09-18 08:09:00,
2013-09-18 02:14:00,51.8,46.5,29.72,NE,39,2.0,3.0,82,0.00,,,0.00,Wunderground v.1.15,2013-09-18 08:14:00,
2013-09-18 02:19:00,51.7,46.4,29.73,NE,38,4.0,5.0,82,0.00,,,0.00,Wunderground v.1.15,2013-09-18 08:19:00,
2013-09-18 02:24:00,51.7,46.4,29.74,NW,325,5.0,6.0,82,0.00,,,0.00,Wunderground v.1.15,2013-09-18 08:24:00,
2013-09-18 02:29:00,51.8,46.5,29.74,NW,325,0.0,6.0,82,0.00,,,0.00,Wunderground v.1.15,2013-09-18 08:29:00,
2013-09-18 02:34:00,52.1,46.8,29.74,NW,325,0.0,4.0,82,0.00,,,0.00,Wunderground v.1.15,2013-09-18 08:34:00,
2013-09-18 02:39:00,52.3,47.0,29.74,WNW,296,0.0,4.0,82,0.00,,,0.00,Wunderground v.1.15,2013-09-18 08:39:00,
2013-09-18 02:44:00,52.4,47.1,29.73,WNW,296,0.0,2.0,82,0.00,,,0.00,Wunderground v.1.15,2013-09-18 08:44:00,
2013-09-18 02:49:00,52.7,47.7,29.73,WNW,296,1.0,2.0,83,0.00,,,0.00,Wunderground v.1.15,2013-09-18 08:49:00,
2013-09-18 02:54:00,52.8,47.8,29.72,WNW,298,2.0,2.0,83,0.00,,,0.00,Wunderground v.1.15,2013-09-18 08:54:00,
2013-09-18 02:59:00,52.8,47.8,29.72,North,360,2.0,11.0,83,0.00,,,0.00,Wunderground v.1.15,2013-09-18 08:59:00,
2013-09-18 03:04:00,52.6,47.6,29.72,North,5,0.0,3.0,83,0.00,,,0.01,Wunderground v.1.15,2013-09-18 09:04:00,
2013-09-18 03:09:00,52.9,47.9,29.70,East,92,0.0,6.0,83,0.00,,,0.01,Wunderground v.1.15,2013-09-18 09:09:00,
2013-09-18 03:14:00,53.3,47.9,29.69,East,92,1.0,3.0,82,0.00,,,0.01,Wunderground v.1.15,2013-09-18 09:14:00,
2013-09-18 03:19:00,53.5,47.8,29.69,East,98,0.0,6.0,81,0.00,,,0.01,Wunderground v.1.15,2013-09-18 09:19:00,
2013-09-18 03:24:00,53.3,47.6,29.69,East,98,0.0,2.0,81,0.00,,,0.01,Wunderground v.1.15,2013-09-18 09:24:00,
2013-09-18 03:29:00,53.1,47.4,29.70,East,98,0.0,2.0,81,0.00,,,0.01,Wunderground v.1.15,2013-09-18 09:29:00,
2013-09-18 03:34:00,52.8,47.1,29.70,East,98,1.0,3.0,81,0.00,,,0.01,Wunderground v.1.15,2013-09-18 09:34:00,
2013-09-18 03:39:00,52.7,47.4,29.70,East,98,1.0,3.0,82,0.00,,,0.01,Wunderground v.1.15,2013-09-18 09:39:00,
2013-09-18 03:44:00,52.7,47.4,29.71,East,98,0.0,3.0,82,0.00,,,0.01,Wunderground v.1.15,2013-09-18 09:44:00,
2013-09-18 03:49:00,52.7,47.4,29.72,West,261,7.0,7.0,82,0.00,,,0.01,Wunderground v.1.15,2013-09-18 09:49:00,
2013-09-18 03:54:00,52.3,47.0,29.73,West,281,7.0,10.0,82,0.00,,,0.01,Wunderground v.1.15,2013-09-18 09:54:00,
2013-09-18 04:00:00,52.3,47.3,29.72,WNW,289,4.0,7.0,83,0.00,,,0.01,Wunderground v.1.15,2013-09-18 10:00:00,
2013-09-18 04:05:00,52.3,47.3,29.71,WNW,288,2.0,7.0,83,0.00,,,0.01,Wunderground v.1.15,2013-09-18 10:05:00,
2013-09-18 04:10:00,52.3,47.3,29.71,WNW,288,4.0,4.0,83,0.00,,,0.01,Wunderground v.1.15,2013-09-18 10:10:00,
2013-09-18 04:15:00,52.2,47.2,29.71,WNW,294,3.0,6.0,83,0.00,,,0.01,Wunderground v.1.15,2013-09-18 10:15:00,
2013-09-18 04:20:00,52.1,47.1,29.71,WNW,300,4.0,5.0,83,0.00,,,0.01,Wunderground v.1.15,2013-09-18 10:20:00,
2013-09-18 04:25:00,52.1,47.1,29.71,WNW,302,5.0,7.0,83,0.00,,,0.01,Wunderground v.1.15,2013-09-18 10:25:00,
2013-09-18 04:30:00,52.1,47.1,29.71,WNW,289,5.0,5.0,83,0.00,,,0.01,Wunderground v.1.15,2013-09-18 10:30:00,
2013-09-18 04:35:00,52.5,47.5,29.71,WNW,301,15.0,15.0,83,0.00,,,0.01,Wunderground v.1.15,2013-09-18 10:35:00,
2013-09-18 04:40:00,52.9,47.6,29.71,WNW,300,11.0,12.0,82,0.00,,,0.01,Wunderground v.1.15,2013-09-18 10:40:00,
2013-09-18 04:45:00,53.0,47.7,29.71,NW,309,10.0,18.0,82,0.00,,,0.01,Wunderground v.1.15,2013-09-18 10:45:00,
2013-09-18 04:50:00,52.9,47.6,29.72,WNW,290,9.0,12.0,82,0.00,,,0.01,Wunderground v.1.15,2013-09-18 10:50:00,
2013-09-18 04:55:00,52.9,47.9,29.72,NW,310,13.0,17.0,83,0.00,,,0.01,Wunderground v.1.15,2013-09-18 10:55:00,
2013-09-18 05:00:00,53.0,48.0,29.71,WNW,299,10.0,13.0,83,0.00,,,0.01,Wunderground v.1.15,2013-09-18 11:00:00,
2013-09-18 05:05:00,52.9,48.2,29.71,WNW,292,15.0,19.0,84,0.00,,,0.02,Wunderground v.1.15,2013-09-18 11:05:00,
2013-09-18 05:10:00,52.8,48.1,29.72,WNW,294,8.0,14.0,84,0.14,,,0.03,Wunderground v.1.15,2013-09-18 11:10:00,
2013-09-18 05:15:00,52.7,48.0,29.72,WNW,291,6.0,14.0,84,0.09,,,0.03,Wunderground v.1.15,2013-09-18 11:15:00,
2013-09-18 05:20:00,52.6,48.2,29.71,WNW,303,3.0,8.0,85,0.05,,,0.03,Wunderground v.1.15,2013-09-18 11:20:00,
2013-09-18 05:26:00,52.5,48.1,29.71,WNW,303,4.0,8.0,85,0.04,,,0.03,Wunderground v.1.15,2013-09-18 11:26:00,
2013-09-18 05:31:00,52.3,47.9,29.71,WNW,303,2.0,4.0,85,0.00,,,0.03,Wunderground v.1.15,2013-09-18 11:31:00,
2013-09-18 05:36:00,52.1,47.7,29.71,WNW,303,1.0,4.0,85,0.00,,,0.03,Wunderground v.1.15,2013-09-18 11:36:00,
2013-09-18 05:41:00,51.8,47.4,29.72,WNW,303,3.0,3.0,85,0.00,,,0.03,Wunderground v.1.15,2013-09-18 11:41:00,
2013-09-18 05:46:00,51.7,47.3,29.72,WNW,303,0.0,3.0,85,0.00,,,0.03,Wunderground v.1.15,2013-09-18 11:46:00,
2013-09-18 05:51:00,51.7,47.3,29.72,WNW,303,0.0,1.0,85,0.00,,,0.03,Wunderground v.1.15,2013-09-18 11:51:00,
2013-09-18 05:56:00,51.7,47.3,29.72,WNW,303,0.0,2.0,85,0.00,,,0.03,Wunderground v.1.15,2013-09-18 11:56:00,
2013-09-18 06:01:00,51.7,47.6,29.71,NNW,327,0.0,0.0,86,0.00,,,0.03,Wunderground v.1.15,2013-09-18 12:01:00,
2013-09-18 06:06:00,51.8,47.4,29.70,North,360,4.0,5.0,85,0.00,,,0.03,Wunderground v.1.15,2013-09-18 12:06:00,
2013-09-18 06:11:00,51.9,47.8,29.71,North,360,1.0,2.0,86,0.00,,,0.03,Wunderground v.1.15,2013-09-18 12:11:00,
2013-09-18 06:16:00,51.9,47.8,29.71,North,360,0.0,5.0,86,0.00,,,0.03,Wunderground v.1.15,2013-09-18 12:16:00,
2013-09-18 06:26:00,51.7,47.6,29.71,North,5,1.0,1.0,86,0.00,,,0.03,Wunderground v.1.15,2013-09-18 12:26:00,
2013-09-18 06:31:00,51.5,47.5,29.71,North,9,2.0,3.0,86,0.00,,,0.03,Wunderground v.1.15,2013-09-18 12:31:00,
2013-09-18 06:36:00,51.2,47.2,29.71,North,10,0.0,1.0,86,0.00,,,0.03,Wunderground v.1.15,2013-09-18 12:36:00,
2013-09-18 06:41:00,51.0,47.0,29.72,North,10,0.0,1.0,86,0.00,,,0.03,Wunderground v.1.15,2013-09-18 12:41:00,
2013-09-18 06:46:00,50.7,46.7,29.72,North,10,0.0,0.0,86,0.00,,,0.03,Wunderground v.1.15,2013-09-18 12:46:00,
2013-09-18 06:51:00,50.4,46.4,29.72,North,10,0.0,0.0,86,0.00,,,0.03,Wunderground v.1.15,2013-09-18 12:51:00,
2013-09-18 06:56:00,50.1,46.1,29.72,North,10,0.0,0.0,86,0.00,,,0.03,Wunderground v.1.15,2013-09-18 12:56:00,
2013-09-18 07:01:00,49.8,45.8,29.73,North,10,0.0,0.0,86,0.00,,,0.03,Wunderground v.1.15,2013-09-18 13:01:00,
2013-09-18 07:06:00,49.5,45.5,29.73,North,10,0.0,0.0,86,0.00,,,0.03,Wunderground v.1.15,2013-09-18 13:06:00,
2013-09-18 07:11:00,49.3,45.3,29.73,North,10,0.0,0.0,86,0.00,,,0.03,Wunderground v.1.15,2013-09-18 13:11:00,
2013-09-18 07:16:00,49.6,45.6,29.73,North,10,0.0,0.0,86,0.00,,,0.03,Wunderground v.1.15,2013-09-18 13:16:00,
2013-09-18 07:21:00,49.7,46.0,29.74,SE,139,4.0,5.0,87,0.00,,,0.03,Wunderground v.1.15,2013-09-18 13:21:00,
2013-09-18 07:26:00,49.7,46.0,29.74,SE,138,3.0,5.0,87,0.00,,,0.03,Wunderground v.1.15,2013-09-18 13:26:00,
2013-09-18 07:31:00,50.0,46.3,29.74,SE,138,2.0,4.0,87,0.00,,,0.03,Wunderground v.1.15,2013-09-18 13:31:00,
2013-09-18 07:36:00,50.5,46.8,29.74,SE,140,4.0,7.0,87,0.00,,,0.03,Wunderground v.1.15,2013-09-18 13:36:00,
2013-09-18 07:41:00,50.9,47.2,29.74,SE,139,1.0,4.0,87,0.00,,,0.03,Wunderground v.1.15,2013-09-18 13:41:00,
2013-09-18 07:46:00,51.2,47.5,29.75,SSE,158,5.0,6.0,87,0.00,,,0.03,Wunderground v.1.15,2013-09-18 13:46:00,
2013-09-18 07:51:00,51.6,47.9,29.75,South,184,6.0,7.0,87,0.00,,,0.03,Wunderground v.1.15,2013-09-18 13:51:00,
2013-09-18 07:56:00,51.9,48.2,29.74,South,183,2.0,7.0,87,0.00,,,0.03,Wunderground v.1.15,2013-09-18 13:56:00,
2013-09-18 08:01:00,52.2,48.4,29.75,South,183,5.0,5.0,87,0.00,,,0.03,Wunderground v.1.15,2013-09-18 14:01:00,
2013-09-18 08:06:00,52.6,48.8,29.75,SSW,203,7.0,8.0,87,0.00,,,0.03,Wunderground v.1.15,2013-09-18 14:06:00,
2013-09-18 08:11:00,52.7,48.9,29.74,South,172,7.0,9.0,87,0.00,,,0.03,Wunderground v.1.15,2013-09-18 14:11:00,
2013-09-18 08:16:00,52.8,49.0,29.74,SSE,163,2.0,9.0,87,0.00,,,0.03,Wunderground v.1.15,2013-09-18 14:16:00,
2013-09-18 08:21:00,52.9,49.1,29.74,SSE,150,6.0,6.0,87,0.00,,,0.03,Wunderground v.1.15,2013-09-18 14:21:00,
2013-09-18 08:26:00,53.2,49.4,29.74,SSE,148,0.0,7.0,87,0.00,,,0.03,Wunderground v.1.15,2013-09-18 14:26:00,
2013-09-18 08:31:00,53.6,49.8,29.73,SSE,148,3.0,5.0,87,0.00,,,0.03,Wunderground v.1.15,2013-09-18 14:31:00,
2013-09-18 08:36:00,54.0,50.2,29.73,SE,146,7.0,8.0,87,0.00,,,0.03,Wunderground v.1.15,2013-09-18 14:36:00,
2013-09-18 08:41:00,54.2,50.1,29.73,SSE,149,5.0,7.0,86,0.00,,,0.03,Wunderground v.1.15,2013-09-18 14:41:00,
2013-09-18 08:46:00,54.7,50.6,29.74,SSE,158,6.0,8.0,86,0.00,,,0.03,Wunderground v.1.15,2013-09-18 14:46:00,
2013-09-18 08:51:00,55.0,50.9,29.74,South,172,5.0,7.0,86,0.00,,,0.03,Wunderground v.1.15,2013-09-18 14:51:00,
2013-09-18 08:57:00,55.1,50.7,29.74,SSE,150,5.0,7.0,85,0.00,,,0.03,Wunderground v.1.15,2013-09-18 14:57:00,
2013-09-18 09:02:00,55.3,50.9,29.74,SSE,167,2.0,5.0,85,0.00,,,0.03,Wunderground v.1.15,2013-09-18 15:02:00,
2013-09-18 09:07:00,55.3,50.5,29.74,SSW,203,0.0,6.0,84,0.00,,,0.03,Wunderground v.1.15,2013-09-18 15:07:00,
2013-09-18 09:12:00,55.6,50.8,29.74,SSW,203,2.0,5.0,84,0.00,,,0.03,Wunderground v.1.15,2013-09-18 15:12:00,
2013-09-18 09:17:00,56.1,51.0,29.74,South,173,3.0,5.0,83,0.00,,,0.03,Wunderground v.1.15,2013-09-18 15:17:00,
2013-09-18 09:22:00,56.4,51.0,29.74,South,169,1.0,4.0,82,0.00,,,0.03,Wunderground v.1.15,2013-09-18 15:22:00,
2013-09-18 09:27:00,56.6,50.8,29.74,SSE,148,4.0,7.0,81,0.00,,,0.03,Wunderground v.1.15,2013-09-18 15:27:00,
2013-09-18 09:32:00,57.1,51.3,29.74,SE,145,5.0,8.0,81,0.00,,,0.03,Wunderground v.1.15,2013-09-18 15:32:00,
2013-09-18 09:37:00,57.5,51.7,29.74,SSE,166,8.0,8.0,81,0.00,,,0.03,Wunderground v.1.15,2013-09-18 15:37:00,
2013-09-18 09:42:00,57.8,51.3,29.74,SSE,149,4.0,8.0,79,0.00,,,0.03,Wunderground v.1.15,2013-09-18 15:42:00,
2013-09-18 09:47:00,57.8,51.3,29.74,SSE,155,5.0,8.0,79,0.00,,,0.03,Wunderground v.1.15,2013-09-18 15:47:00,
2013-09-18 09:52:00,57.8,51.3,29.74,SSE,165,3.0,4.0,79,0.00,,,0.03,Wunderground v.1.15,2013-09-18 15:52:00,
2013-09-18 09:57:00,57.8,51.3,29.73,SSE,160,3.0,6.0,79,0.00,,,0.03,Wunderground v.1.15,2013-09-18 15:57:00,
2013-09-18 10:01:00,58.0,51.9,29.73,SSE,159,3.0,4.0,80,0.00,,,0.03,Wunderground v.1.15,2013-09-18 16:01:00,
2013-09-18 10:06:00,58.0,51.5,29.73,SSE,159,1.0,4.0,79,0.00,,,0.03,Wunderground v.1.15,2013-09-18 16:06:00,
2013-09-18 10:11:00,58.2,52.1,29.72,SSE,160,3.0,6.0,80,0.00,,,0.03,Wunderground v.1.15,2013-09-18 16:11:00,
2013-09-18 10:16:00,58.2,51.7,29.72,South,180,4.0,6.0,79,0.00,,,0.03,Wunderground v.1.15,2013-09-18 16:16:00,
2013-09-18 10:21:00,58.4,51.9,29.72,South,175,4.0,8.0,79,0.00,,,0.03,Wunderground v.1.15,2013-09-18 16:21:00,
2013-09-18 10:26:00,58.6,52.1,29.73,SSW,198,5.0,8.0,79,0.00,,,0.03,Wunderground v.1.15,2013-09-18 16:26:00,
2013-09-18 10:31:00,58.9,52.1,29.73,SSE,150,6.0,7.0,78,0.00,,,0.03,Wunderground v.1.15,2013-09-18 16:31:00,
2013-09-18 10:36:00,59.0,52.1,29.72,SSE,150,0.0,7.0,78,0.00,,,0.03,Wunderground v.1.15,2013-09-18 16:36:00,
2013-09-18 10:41:00,59.0,51.8,29.72,SE,146,4.0,5.0,77,0.00,,,0.03,Wunderground v.1.15,2013-09-18 16:41:00,
2013-09-18 10:46:00,59.0,51.8,29.72,SE,145,3.0,5.0,77,0.00,,,0.03,Wunderground v.1.15,2013-09-18 16:46:00,
2013-09-18 10:52:00,59.0,51.8,29.71,SE,146,2.0,5.0,77,0.00,,,0.03,Wunderground v.1.15,2013-09-18 16:52:00,
2013-09-18 10:57:00,59.0,51.8,29.71,SE,142,4.0,9.0,77,0.00,,,0.03,Wunderground v.1.15,2013-09-18 16:57:00,
2013-09-18 11:02:00,58.9,52.1,29.72,SSE,165,7.0,7.0,78,0.00,,,0.03,Wunderground v.1.15,2013-09-18 17:02:00,
2013-09-18 11:07:00,58.7,51.9,29.72,SSE,161,6.0,8.0,78,0.00,,,0.03,Wunderground v.1.15,2013-09-18 17:07:00,
2013-09-18 11:12:00,58.4,51.6,29.72,South,175,6.0,8.0,78,0.00,,,0.03,Wunderground v.1.15,2013-09-18 17:12:00,
2013-09-18 11:17:00,58.3,51.8,29.72,South,187,7.0,8.0,79,0.00,,,0.03,Wunderground v.1.15,2013-09-18 17:17:00,
2013-09-18 11:22:00,58.2,51.7,29.72,South,188,5.0,6.0,79,0.00,,,0.03,Wunderground v.1.15,2013-09-18 17:22:00,
2013-09-18 11:27:00,58.2,51.7,29.72,WSW,253,4.0,6.0,79,0.00,,,0.03,Wunderground v.1.15,2013-09-18 17:27:00,
2013-09-18 11:32:00,58.2,51.7,29.73,West,279,4.0,5.0,79,0.00,,,0.03,Wunderground v.1.15,2013-09-18 17:32:00,
2013-09-18 11:37:00,58.2,51.7,29.73,West,275,4.0,5.0,79,0.00,,,0.03,Wunderground v.1.15,2013-09-18 17:37:00,
2013-09-18 11:42:00,58.3,51.5,29.73,West,275,4.0,4.0,78,0.00,,,0.03,Wunderground v.1.15,2013-09-18 17:42:00,
2013-09-18 11:47:00,58.3,51.5,29.73,West,275,1.0,4.0,78,0.00,,,0.03,Wunderground v.1.15,2013-09-18 17:47:00,
2013-09-18 11:52:00,58.3,51.1,29.73,West,275,2.0,4.0,77,0.00,,,0.03,Wunderground v.1.15,2013-09-18 17:52:00,
2013-09-18 11:57:00,58.4,51.6,29.73,West,275,3.0,4.0,78,0.00,,,0.03,Wunderground v.1.15,2013-09-18 17:57:00,
2013-09-18 12:02:00,58.5,51.3,29.73,West,276,3.0,5.0,77,0.00,,,0.03,Wunderground v.1.15,2013-09-18 18:02:00,
2013-09-18 12:07:00,58.6,52.1,29.73,NW,304,6.0,8.0,79,0.00,,,0.03,Wunderground v.1.15,2013-09-18 18:07:00,
2013-09-18 12:12:00,58.5,52.0,29.72,NW,310,8.0,11.0,79,0.00,,,0.03,Wunderground v.1.15,2013-09-18 18:12:00,
2013-09-18 12:17:00,58.2,52.1,29.72,NW,308,8.0,11.0,80,0.00,,,0.03,Wunderground v.1.15,2013-09-18 18:17:00,
2013-09-18 12:22:00,58.0,51.9,29.72,NW,315,6.0,10.0,80,0.00,,,0.03,Wunderground v.1.15,2013-09-18 18:22:00,
2013-09-18 15:15:00,69.7,49.7,29.63,SE,138,7.0,10.0,49,0.00,,,0.03,Wunderground v.1.15,2013-09-18 21:15:00,
2013-09-18 15:20:00,69.5,49.5,29.63,SSE,150,8.0,11.0,49,0.00,,,0.03,Wunderground v.1.15,2013-09-18 21:20:00,
2013-09-18 15:25:00,69.1,49.7,29.62,SE,140,7.0,11.0,50,0.00,,,0.03,Wunderground v.1.15,2013-09-18 21:25:00,
2013-09-18 15:30:00,68.8,48.9,29.62,SE,137,5.0,7.0,49,0.00,,,0.03,Wunderground v.1.15,2013-09-18 21:30:00,
2013-09-18 15:35:00,68.6,47.6,29.62,SSE,147,6.0,10.0,47,0.00,,,0.03,Wunderground v.1.15,2013-09-18 21:35:00,
2013-09-18 15:40:00,68.3,48.9,29.62,SE,136,6.0,8.0,50,0.00,,,0.03,Wunderground v.1.15,2013-09-18 21:40:00,
2013-09-18 15:45:00,67.9,48.0,29.62,SE,142,6.0,10.0,49,0.00,,,0.03,Wunderground v.1.15,2013-09-18 21:45:00,
2013-09-18 15:50:00,67.8,47.9,29.62,SE,145,8.0,8.0,49,0.00,,,0.03,Wunderground v.1.15,2013-09-18 21:50:00,
2013-09-18 15:56:00,67.8,47.9,29.62,SE,146,6.0,8.0,49,0.00,,,0.03,Wunderground v.1.15,2013-09-18 21:56:00,
2013-09-18 16:01:00,67.7,48.4,29.61,SSE,149,3.0,6.0,50,0.00,,,0.03,Wunderground v.1.15,2013-09-18 22:01:00,
2013-09-18 16:06:00,67.8,47.9,29.61,SE,136,7.0,10.0,49,0.00,,,0.03,Wunderground v.1.15,2013-09-18 22:06:00,
2013-09-18 16:11:00,67.9,48.0,29.61,SSE,148,6.0,8.0,49,0.00,,,0.03,Wunderground v.1.15,2013-09-18 22:11:00,
2013-09-18 16:16:00,67.9,48.6,29.61,SE,144,0.0,9.0,50,0.00,,,0.03,Wunderground v.1.15,2013-09-18 22:16:00,
2013-09-18 16:21:00,68.0,48.1,29.61,SE,145,0.0,4.0,49,0.00,,,0.03,Wunderground v.1.15,2013-09-18 22:21:00,
2013-09-18 16:26:00,68.0,48.1,29.60,SSE,148,1.0,4.0,49,0.00,,,0.03,Wunderground v.1.15,2013-09-18 22:26:00,
2013-09-18 16:31:00,68.1,47.7,29.60,SE,144,0.0,2.0,48,0.00,,,0.03,Wunderground v.1.15,2013-09-18 22:31:00,
2013-09-18 16:36:00,68.3,46.7,29.60,SE,140,0.0,3.0,46,0.00,,,0.03,Wunderground v.1.15,2013-09-18 22:36:00,
2013-09-18 16:41:00,68.2,46.6,29.61,SE,132,4.0,4.0,46,0.00,,,0.03,Wunderground v.1.15,2013-09-18 22:41:00,
2013-09-18 16:46:00,68.2,47.8,29.62,SSE,148,3.0,4.0,48,0.00,,,0.03,Wunderground v.1.15,2013-09-18 22:46:00,
2013-09-18 16:52:00,68.0,47.6,29.61,SE,133,7.0,7.0,48,0.00,,,0.03,Wunderground v.1.15,2013-09-18 22:52:00,
2013-09-18 16:57:00,67.7,46.2,29.62,SE,144,7.0,10.0,46,0.00,,,0.03,Wunderground v.1.15,2013-09-18 22:57:00,
2013-09-18 17:02:00,67.4,45.9,29.62,SSE,151,4.0,8.0,46,0.00,,,0.03,Wunderground v.1.15,2013-09-18 23:02:00,
2013-09-18 17:07:00,67.2,46.8,29.61,SE,140,5.0,8.0,48,0.00,,,0.03,Wunderground v.1.15,2013-09-18 23:07:00,
2013-09-18 17:12:00,67.0,47.2,29.61,SSE,155,5.0,6.0,49,0.00,,,0.03,Wunderground v.1.15,2013-09-18 23:12:00,
2013-09-18 17:17:00,66.9,47.1,29.62,SSW,194,7.0,9.0,49,0.00,,,0.03,Wunderground v.1.15,2013-09-18 23:17:00,
2013-09-18 17:22:00,66.7,50.0,29.62,SSW,213,4.0,7.0,55,0.00,,,0.03,Wunderground v.1.15,2013-09-18 23:22:00,
2013-09-18 17:27:00,66.4,49.7,29.61,SW,214,3.0,7.0,55,0.00,,,0.03,Wunderground v.1.15,2013-09-18 23:27:00,
2013-09-18 17:32:00,66.3,50.6,29.61,SW,214,2.0,5.0,57,0.00,,,0.03,Wunderground v.1.15,2013-09-18 23:32:00,
2013-09-18 17:37:00,66.2,50.5,29.61,SW,214,2.0,5.0,57,0.00,,,0.03,Wunderground v.1.15,2013-09-18 23:37:00,
2013-09-18 17:42:00,66.0,51.3,29.62,SW,214,3.0,3.0,59,0.00,,,0.03,Wunderground v.1.15,2013-09-18 23:42:00,
2013-09-18 17:47:00,65.7,51.4,29.62,SSE,167,5.0,6.0,60,0.00,,,0.03,Wunderground v.1.15,2013-09-18 23:47:00,
2013-09-18 17:52:00,65.7,47.1,29.62,SSE,147,7.0,7.0,51,0.00,,,0.03,Wunderground v.1.15,2013-09-18 23:52:00,
2013-09-18 17:57:00,65.4,45.7,29.62,SE,144,7.0,10.0,49,0.00,,,0.03,Wunderground v.1.15,2013-09-18 23:57:00,
2013-09-18 18:02:00,64.9,45.8,29.62,SSE,155,7.0,9.0,50,0.00,,,0.03,Wunderground v.1.15,2013-09-19 00:02:00,
2013-09-18 18:07:00,64.5,45.4,29.62,SSE,163,6.0,12.0,50,0.00,,,0.03,Wunderground v.1.15,2013-09-19 00:07:00,
2013-09-18 18:12:00,64.0,45.0,29.63,SSW,213,7.0,11.0,50,0.00,,,0.03,Wunderground v.1.15,2013-09-19 00:12:00,
2013-09-18 18:17:00,63.6,46.1,29.63,SW,217,7.0,11.0,53,0.00,,,0.03,Wunderground v.1.15,2013-09-19 00:17:00,
2013-09-18 18:22:00,63.1,47.1,29.63,SSW,209,6.0,8.0,56,0.00,,,0.03,Wunderground v.1.15,2013-09-19 00:22:00,
2013-09-18 18:27:00,62.6,47.6,29.63,SW,214,5.0,8.0,58,0.00,,,0.03,Wunderground v.1.15,2013-09-19 00:27:00,
2013-09-18 18:32:00,62.2,47.7,29.63,SW,215,5.0,6.0,59,0.00,,,0.03,Wunderground v.1.15,2013-09-19 00:32:00,
2013-09-18 18:37:00,61.7,46.8,29.64,West,260,5.0,6.0,58,0.00,,,0.03,Wunderground v.1.15,2013-09-19 00:37:00,
2013-09-18 18:43:00,61.4,45.6,29.65,WNW,300,5.0,8.0,56,0.00,,,0.03,Wunderground v.1.15,2013-09-19 00:43:00,
2013-09-18 18:48:00,61.7,43.4,29.64,WNW,294,3.0,8.0,51,0.00,,,0.03,Wunderground v.1.15,2013-09-19 00:48:00,
2013-09-18 18:53:00,61.8,45.0,29.65,WNW,294,3.0,5.0,54,0.00,,,0.03,Wunderground v.1.15,2013-09-19 00:53:00,
2013-09-18 18:58:00,61.3,45.5,29.65,WNW,294,4.0,5.0,56,0.00,,,0.03,Wunderground v.1.15,2013-09-19 00:58:00,
2013-09-18 19:03:00,60.8,45.5,29.66,WNW,289,5.0,5.0,57,0.00,,,0.03,Wunderground v.1.15,2013-09-19 01:03:00,
2013-09-18 19:08:00,60.5,45.2,29.66,WNW,289,1.0,5.0,57,0.00,,,0.03,Wunderground v.1.15,2013-09-19 01:08:00,
2013-09-18 19:13:00,60.2,46.3,29.67,NNE,28,6.0,6.0,60,0.00,,,0.03,Wunderground v.1.15,2013-09-19 01:13:00,
2013-09-18 19:18:00,59.0,44.2,29.67,NNE,30,7.0,11.0,58,0.00,,,0.03,Wunderground v.1.15,2013-09-19 01:18:00,
2013-09-18 19:23:00,58.8,44.5,29.67,NE,38,6.0,9.0,59,0.00,,,0.03,Wunderground v.1.15,2013-09-19 01:23:00,
2013-09-18 19:28:00,57.8,44.0,29.66,NE,34,7.0,12.0,60,0.00,,,0.03,Wunderground v.1.15,2013-09-19 01:28:00,
2013-09-18 19:33:00,57.1,44.2,29.66,NE,34,7.0,11.0,62,0.00,,,0.03,Wunderground v.1.15,2013-09-19 01:33:00,
2013-09-18 19:38:00,56.8,43.5,29.67,NNE,28,8.0,13.0,61,0.00,,,0.03,Wunderground v.1.15,2013-09-19 01:38:00,
2013-09-18 19:43:00,57.1,43.8,29.67,North,5,5.0,10.0,61,0.00,,,0.03,Wunderground v.1.15,2013-09-19 01:43:00,
2013-09-18 19:48:00,57.1,44.2,29.68,North,5,5.0,10.0,62,0.00,,,0.03,Wunderground v.1.15,2013-09-19 01:48:00,
2013-09-18 19:53:00,56.9,44.8,29.69,North,355,4.0,8.0,64,0.00,,,0.03,Wunderground v.1.15,2013-09-19 01:53:00,
2013-09-18 19:58:00,56.7,44.7,29.69,NNW,332,5.0,8.0,64,0.00,,,0.03,Wunderground v.1.15,2013-09-19 01:58:00,
2013-09-18 20:03:00,56.6,44.6,29.69,NW,323,5.0,9.0,64,0.00,,,0.03,Wunderground v.1.15,2013-09-19 02:03:00,
2013-09-18 20:08:00,56.8,44.3,29.70,NW,308,9.0,12.0,63,0.00,,,0.03,Wunderground v.1.15,2013-09-19 02:08:00,
2013-09-18 20:13:00,57.1,43.3,29.71,NW,304,13.0,14.0,60,0.00,,,0.03,Wunderground v.1.15,2013-09-19 02:13:00,
2013-09-18 20:18:00,57.1,44.2,29.72,WNW,293,12.0,16.0,62,0.00,,,0.03,Wunderground v.1.15,2013-09-19 02:18:00,
2013-09-18 20:23:00,56.9,43.6,29.72,WNW,283,11.0,16.0,61,0.00,,,0.03,Wunderground v.1.15,2013-09-19 02:23:00,
2013-09-18 20:28:00,56.7,44.2,29.72,WNW,291,20.0,22.0,63,0.00,,,0.03,Wunderground v.1.15,2013-09-19 02:28:00,
2013-09-18 20:33:00,55.6,44.4,29.73,West,281,23.0,25.0,66,0.00,,,0.03,Wunderground v.1.15,2013-09-19 02:33:00,
2013-09-18 20:38:00,54.1,44.5,29.73,WNW,291,15.0,26.0,70,0.00,,,0.03,Wunderground v.1.15,2013-09-19 02:38:00,
2013-09-18 20:43:00,52.5,45.2,29.72,West,277,18.0,24.0,76,0.00,,,0.04,Wunderground v.1.15,2013-09-19 02:43:00,
2013-09-18 20:48:00,51.4,45.1,29.74,West,277,17.0,24.0,79,0.00,,,0.04,Wunderground v.1.15,2013-09-19 02:48:00,
2013-09-18 20:54:00,50.7,44.8,29.74,WNW,291,16.0,27.0,80,0.06,,,0.05,Wunderground v.1.15,2013-09-19 02:54:00,
2013-09-18 20:59:00,50.5,44.9,29.75,West,276,17.0,27.0,81,0.06,,,0.05,Wunderground v.1.15,2013-09-19 02:59:00,
2013-09-18 21:04:00,50.4,45.1,29.75,WNW,284,16.0,20.0,82,0.07,,,0.06,Wunderground v.1.15,2013-09-19 03:04:00,
2013-09-18 21:09:00,50.2,44.9,29.74,WNW,288,14.0,21.0,82,0.07,,,0.06,Wunderground v.1.15,2013-09-19 03:09:00,
2013-09-18 21:14:00,50.3,45.0,29.75,West,281,19.0,19.0,82,0.05,,,0.06,Wunderground v.1.15,2013-09-19 03:14:00,
2013-09-18 21:19:00,50.4,45.1,29.75,West,275,9.0,21.0,82,0.00,,,0.06,Wunderground v.1.15,2013-09-19 03:19:00,
2013-09-18 21:24:00,50.5,45.2,29.75,WNW,287,12.0,14.0,82,0.00,,,0.06,Wunderground v.1.15,2013-09-19 03:24:00,
2013-09-18 21:29:00,50.6,45.3,29.75,West,281,8.0,15.0,82,0.00,,,0.06,Wunderground v.1.15,2013-09-19 03:29:00,
2013-09-18 21:34:00,50.7,45.4,29.76,West,259,11.0,14.0,82,0.00,,,0.07,Wunderground v.1.15,2013-09-19 03:34:00,
2013-09-18 21:39:00,50.8,45.5,29.77,West,281,14.0,14.0,82,0.08,,,0.08,Wunderground v.1.15,2013-09-19 03:39:00,
2013-09-18 21:44:00,50.7,45.4,29.77,WNW,286,11.0,12.0,82,0.08,,,0.08,Wunderground v.1.15,2013-09-19 03:44:00,
2013-09-18 21:49:00,50.6,45.6,29.78,WNW,285,9.0,12.0,83,0.09,,,0.09,Wunderground v.1.15,2013-09-19 03:49:00,
2013-09-18 21:54:00,50.5,45.5,29.78,West,264,6.0,10.0,83,0.07,,,0.10,Wunderground v.1.15,2013-09-19 03:54:00,
2013-09-18 22:00:00,50.3,45.3,29.77,West,263,6.0,10.0,83,0.07,,,0.10,Wunderground v.1.15,2013-09-19 04:00:00,
2013-09-18 22:01:00,50.3,45.3,29.78,West,261,5.0,7.0,83,0.07,,,0.10,Wunderground v.1.15,2013-09-19 04:01:00,
2013-09-18 22:02:00,50.3,45.3,29.78,West,260,5.0,7.0,83,0.07,,,0.10,Wunderground v.1.15,2013-09-19 04:02:00,
2013-09-18 22:07:00,50.3,45.3,29.78,WSW,238,7.0,8.0,83,0.07,,,0.11,Wunderground v.1.15,2013-09-19 04:07:00,
2013-09-18 22:08:00,50.3,45.6,29.78,WSW,240,8.0,9.0,84,0.07,,,0.11,Wunderground v.1.15,2013-09-19 04:08:00,
2013-09-18 22:13:00,50.4,45.7,29.77,SW,226,7.0,11.0,84,0.09,,,0.12,Wunderground v.1.15,2013-09-19 04:13:00,
2013-09-18 22:18:00,50.3,45.6,29.77,SSW,195,10.0,11.0,84,0.09,,,0.13,Wunderground v.1.15,2013-09-19 04:18:00,
2013-09-18 22:23:00,50.3,45.6,29.77,SSW,206,7.0,9.0,84,0.13,,,0.14,Wunderground v.1.15,2013-09-19 04:23:00,
2013-09-18 22:28:00,50.2,45.6,29.76,South,187,5.0,9.0,84,0.07,,,0.14,Wunderground v.1.15,2013-09-19 04:28:00,
2013-09-18 22:33:00,50.2,45.6,29.76,SSE,164,4.0,7.0,84,0.05,,,0.14,Wunderground v.1.15,2013-09-19 04:33:00,
2013-09-18 22:38:00,50.1,45.5,29.75,SSE,161,4.0,7.0,84,0.00,,,0.14,Wunderground v.1.15,2013-09-19 04:38:00,
2013-09-18 22:43:00,49.9,45.6,29.74,SSE,159,3.0,6.0,85,0.00,,,0.14,Wunderground v.1.15,2013-09-19 04:43:00,
2013-09-18 22:48:00,49.8,45.5,29.74,SSE,159,4.0,6.0,85,0.00,,,0.14,Wunderground v.1.15,2013-09-19 04:48:00,
2013-09-18 22:53:00,49.7,45.4,29.74,SSE,159,3.0,4.0,85,0.00,,,0.14,Wunderground v.1.15,2013-09-19 04:53:00,
2013-09-18 22:58:00,49.9,45.6,29.75,SSE,159,7.0,7.0,85,0.00,,,0.14,Wunderground v.1.15,2013-09-19 04:58:00,
2013-09-18 23:03:00,49.9,45.6,29.75,SSE,162,4.0,8.0,85,0.00,,,0.14,Wunderground v.1.15,2013-09-19 05:03:00,
2013-09-18 23:08:00,49.8,45.5,29.74,SSE,162,0.0,8.0,85,0.00,,,0.14,Wunderground v.1.15,2013-09-19 05:08:00,
2013-09-18 23:13:00,49.7,45.4,29.74,SSE,161,2.0,4.0,85,0.00,,,0.14,Wunderground v.1.15,2013-09-19 05:13:00,
2013-09-18 23:18:00,49.7,45.4,29.75,SSE,162,1.0,4.0,85,0.00,,,0.14,Wunderground v.1.15,2013-09-19 05:18:00,
2013-09-18 23:23:00,49.6,45.3,29.75,SSE,160,2.0,4.0,85,0.00,,,0.14,Wunderground v.1.15,2013-09-19 05:23:00,
2013-09-18 23:28:00,49.5,45.5,29.75,SSE,160,0.0,4.0,86,0.00,,,0.14,Wunderground v.1.15,2013-09-19 05:28:00,
2013-09-18 23:33:00,49.4,45.4,29.77,SSE,160,1.0,2.0,86,0.00,,,0.14,Wunderground v.1.15,2013-09-19 05:33:00,
2013-09-18 23:39:00,49.4,45.4,29.76,SSE,160,0.0,2.0,86,0.00,,,0.14,Wunderground v.1.15,2013-09-19 05:39:00,
2013-09-18 23:44:00,49.4,45.4,29.77,SSE,160,0.0,1.0,86,0.00,,,0.14,Wunderground v.1.15,2013-09-19 05:44:00,
2013-09-18 23:49:00,49.6,45.6,29.78,SSE,160,3.0,4.0,86,0.00,,,0.14,Wunderground v.1.15,2013-09-19 05:49:00,
2013-09-18 23:54:00,49.7,45.7,29.78,West,273,5.0,7.0,86,0.00,,,0.14,Wunderground v.1.15,2013-09-19 05:54:00,
2013-09-18 23:59:00,49.6,45.6,29.78,WNW,293,7.0,9.0,86,0.00,,,0.14,Wunderground v.1.15,2013-09-19 05:59:00,